map of UKK home
UKK - Airport
Location
City:  Oskemen, Shyghys Qazaqstan, Kazakhstan
Name:Oskemen Airport
Old (Alt.):Ust-Kamenogorsk Airport
ICAO:UASK
IATA:UKK

Details
Type:Airport (Aerodrome, Airfield)
Use:Public/Civil
Latitude:5002'10"N (50.036111)
Longitude:8229'39"E (82.494167)
Elevation:938 ft (286 m)
Variation:6.50E (WMM2015 magnetic declination)
0.02 annual change
Runways:1
Longest:8235 × 138 ft (2510 × 42 m), paved

Time
Time Zone:UTC+6 (DST+7)

Weather
METAR:UASK 160730Z 14004MPS 9999 FEW033CB OVC056 00/M05 Q1025 R12/810250 NOSIG RMK QFE743/0991

Related Locations
Nearby:
Farthest:PNT: 11345 mi / 18257 km
Puerto Natales [Teniente Julio Gallardo], MA, CL

Find:

   beyond  
but within

Other Information
Maps:
NOTAMs:
Links:
Sources:

  
  • flag of Kazakhstan
  

Sectional Chart

Flight Planning
at skyvector.com

Satellite Image

Google Maps Satellite view

 

Copyright © 2004-2018 Karl L. Swartz. All rights reserved.
The Great Circle Mapper name and logo are trademarks of the Great Circle Mapper.
All other trademarks mentioned herein belong to their respective owners.
Please see credits for attibutions and further copyright information.

  Follow gcmap on Facebook Follow gcmap on Twitter Follow gcmap on Google+ GCmap on LinkedIn

hCard Microformat

Geo Microformat